sensor_id;sensor_type;location;lat;lon;timestamp;pressure;altitude;pressure_sealevel;temperature;humidity
14343;BME280;7255;53.596;9.960;2023-05-21T00:01:23;101929.75;;;13.75;nan
14343;BME280;7255;53.596;9.960;2023-05-21T00:03:49;101930.72;;;13.56;nan
14343;BME280;7255;53.596;9.960;2023-05-21T00:06:16;101929.38;;;13.72;nan
14343;BME280;7255;53.596;9.960;2023-05-21T00:08:44;101926.53;;;13.60;nan
14343;BME280;7255;53.596;9.960;2023-05-21T00:11:12;101929.88;;;13.55;nan
14343;BME280;7255;53.596;9.960;2023-05-21T00:13:38;101921.69;;;13.23;nan
14343;BME280;7255;53.596;9.960;2023-05-21T00:16:05;101910.94;;;13.03;nan
14343;BME280;7255;53.596;9.960;2023-05-21T00:18:32;101906.75;;;13.14;nan
14343;BME280;7255;53.596;9.960;2023-05-21T00:20:58;101908.84;;;13.19;nan
14343;BME280;7255;53.596;9.960;2023-05-21T00:23:25;101910.47;;;13.20;nan
14343;BME280;7255;53.596;9.960;2023-05-21T00:25:52;101908.03;;;13.12;nan
14343;BME280;7255;53.596;9.960;2023-05-21T00:28:19;101897.31;;;12.85;nan
14343;BME280;7255;53.596;9.960;2023-05-21T00:30:46;101905.19;;;12.93;nan
14343;BME280;7255;53.596;9.960;2023-05-21T00:33:12;101897.25;;;12.98;nan
14343;BME280;7255;53.596;9.960;2023-05-21T00:35:38;101897.25;;;13.05;nan
14343;BME280;7255;53.596;9.960;2023-05-21T00:38:05;101893.28;;;13.07;nan
14343;BME280;7255;53.596;9.960;2023-05-21T00:40:33;101893.12;;;13.02;nan
14343;BME280;7255;53.596;9.960;2023-05-21T00:42:59;101895.16;;;13.07;nan
14343;BME280;7255;53.596;9.960;2023-05-21T00:45:27;101891.41;;;13.15;nan
14343;BME280;7255;53.596;9.960;2023-05-21T00:47:53;101881.06;;;13.05;nan
14343;BME280;7255;53.596;9.960;2023-05-21T00:50:20;101886.44;;;13.12;nan
14343;BME280;7255;53.596;9.960;2023-05-21T00:52:48;101888.88;;;13.20;nan
14343;BME280;7255;53.596;9.960;2023-05-21T00:55:15;101882.72;;;13.06;nan
14343;BME280;7255;53.596;9.960;2023-05-21T00:57:42;101883.16;;;12.96;nan
14343;BME280;7255;53.596;9.960;2023-05-21T01:00:11;101878.56;;;13.10;nan
14343;BME280;7255;53.596;9.960;2023-05-21T01:02:40;101886.47;;;13.05;nan
14343;BME280;7255;53.596;9.960;2023-05-21T01:05:08;101886.44;;;13.12;nan
14343;BME280;7255;53.596;9.960;2023-05-21T01:07:37;101883.09;;;13.09;nan
14343;BME280;7255;53.596;9.960;2023-05-21T01:10:05;101874.88;;;12.91;nan
14343;BME280;7255;53.596;9.960;2023-05-21T01:12:32;101866.56;;;12.99;nan
14343;BME280;7255;53.596;9.960;2023-05-21T01:15:00;101870.72;;;12.95;nan
14343;BME280;7255;53.596;9.960;2023-05-21T01:17:28;101875.69;;;12.98;nan
14343;BME280;7255;53.596;9.960;2023-05-21T01:19:57;101875.66;;;13.05;nan
14343;BME280;7255;53.596;9.960;2023-05-21T01:22:23;101877.75;;;12.96;nan
14343;BME280;7255;53.596;9.960;2023-05-21T01:24:52;101872.75;;;13.06;nan
14343;BME280;7255;53.596;9.960;2023-05-21T01:27:19;101877.34;;;12.99;nan
14343;BME280;7255;53.596;9.960;2023-05-21T01:29:46;101869.88;;;13.01;nan
14343;BME280;7255;53.596;9.960;2023-05-21T01:32:15;101878.97;;;13.07;nan
14343;BME280;7255;53.596;9.960;2023-05-21T01:34:49;101880.59;;;13.15;nan
14343;BME280;7255;53.596;9.960;2023-05-21T01:37:30;101872.41;;;12.76;nan
14343;BME280;7255;53.596;9.960;2023-05-21T01:40:04;101870.37;;;12.71;nan
14343;BME280;7255;53.596;9.960;2023-05-21T01:42:35;101869.31;;;12.73;nan
14343;BME280;7255;53.596;9.960;2023-05-21T01:45:03;101866.63;;;12.73;nan
14343;BME280;7255;53.596;9.960;2023-05-21T01:47:31;101857.47;;;12.87;nan
14343;BME280;7255;53.596;9.960;2023-05-21T01:49:58;101862.41;;;12.97;nan
14343;BME280;7255;53.596;9.960;2023-05-21T01:52:24;101868.19;;;13.00;nan
14343;BME280;7255;53.596;9.960;2023-05-21T01:54:51;101861.97;;;13.00;nan
14343;BME280;7255;53.596;9.960;2023-05-21T01:57:19;101862.44;;;12.90;nan
14343;BME280;7255;53.596;9.960;2023-05-21T01:59:46;101851.91;;;12.62;nan
14343;BME280;7255;53.596;9.960;2023-05-21T02:02:12;101856.28;;;12.63;nan
14343;BME280;7255;53.596;9.960;2023-05-21T02:04:39;101845.03;;;12.79;nan
14343;BME280;7255;53.596;9.960;2023-05-21T02:07:05;101849.97;;;12.89;nan
14343;BME280;7255;53.596;9.960;2023-05-21T02:09:32;101848.69;;;12.98;nan
14343;BME280;7255;53.596;9.960;2023-05-21T02:11:58;101845.44;;;12.89;nan
14343;BME280;7255;53.596;9.960;2023-05-21T02:14:26;101849.22;;;12.75;nan
14343;BME280;7255;53.596;9.960;2023-05-21T02:16:54;101848.75;;;12.85;nan
14343;BME280;7255;53.596;9.960;2023-05-21T02:19:20;101852.00;;;13.00;nan
14343;BME280;7255;53.596;9.960;2023-05-21T02:21:47;101851.66;;;12.90;nan
14343;BME280;7255;53.596;9.960;2023-05-21T02:24:13;101840.91;;;12.77;nan
14343;BME280;7255;53.596;9.960;2023-05-21T02:26:39;101838.78;;;12.85;nan
14343;BME280;7255;53.596;9.960;2023-05-21T02:29:06;101841.31;;;12.74;nan
14343;BME280;7255;53.596;9.960;2023-05-21T02:31:34;101833.37;;;12.92;nan
14343;BME280;7255;53.596;9.960;2023-05-21T02:34:01;101834.66;;;12.83;nan
14343;BME280;7255;53.596;9.960;2023-05-21T02:36:27;101831.75;;;12.78;nan
14343;BME280;7255;53.596;9.960;2023-05-21T02:38:57;101823.00;;;12.89;nan
14343;BME280;7255;53.596;9.960;2023-05-21T02:41:23;101824.69;;;12.83;nan
14343;BME280;7255;53.596;9.960;2023-05-21T02:43:50;101821.38;;;12.88;nan
14343;BME280;7255;53.596;9.960;2023-05-21T02:46:17;101812.69;;;12.79;nan
14343;BME280;7255;53.596;9.960;2023-05-21T02:48:45;101815.12;;;12.87;nan
14343;BME280;7255;53.596;9.960;2023-05-21T02:51:11;101800.63;;;12.82;nan
14343;BME280;7255;53.596;9.960;2023-05-21T02:53:37;101802.97;;;12.65;nan
14343;BME280;7255;53.596;9.960;2023-05-21T02:56:04;101818.12;;;12.59;nan
14343;BME280;7255;53.596;9.960;2023-05-21T02:58:30;101806.97;;;12.42;nan
14343;BME280;7255;53.596;9.960;2023-05-21T03:00:57;101804.69;;;12.39;nan
14343;BME280;7255;53.596;9.960;2023-05-21T03:03:23;101802.19;;;12.44;nan
14343;BME280;7255;53.596;9.960;2023-05-21T03:05:51;101793.31;;;12.30;nan
14343;BME280;7255;53.596;9.960;2023-05-21T03:08:17;101793.75;;;12.01;nan
14343;BME280;7255;53.596;9.960;2023-05-21T03:10:44;101801.22;;;12.12;nan
14343;BME280;7255;53.596;9.960;2023-05-21T03:13:10;101793.34;;;12.24;nan
14343;BME280;7255;53.596;9.960;2023-05-21T03:15:36;101793.34;;;12.17;nan
14343;BME280;7255;53.596;9.960;2023-05-21T03:18:03;101796.66;;;12.26;nan
14343;BME280;7255;53.596;9.960;2023-05-21T03:20:29;101799.94;;;12.35;nan
14343;BME280;7255;53.596;9.960;2023-05-21T03:22:58;101802.00;;;12.46;nan
14343;BME280;7255;53.596;9.960;2023-05-21T03:25:24;101799.50;;;12.38;nan
14343;BME280;7255;53.596;9.960;2023-05-21T03:27:51;101801.22;;;12.12;nan
14343;BME280;7255;53.596;9.960;2023-05-21T03:30:17;101812.38;;;12.29;nan
14343;BME280;7255;53.596;9.960;2023-05-21T03:32:43;101804.06;;;12.44;nan
14343;BME280;7255;53.596;9.960;2023-05-21T03:35:10;101807.38;;;12.32;nan
14343;BME280;7255;53.596;9.960;2023-05-21T03:37:36;101803.69;;;12.20;nan
14343;BME280;7255;53.596;9.960;2023-05-21T03:40:05;101804.91;;;12.38;nan
14343;BME280;7255;53.596;9.960;2023-05-21T03:42:32;101794.53;;;12.48;nan
14343;BME280;7255;53.596;9.960;2023-05-21T03:44:58;101790.81;;;12.42;nan
14343;BME280;7255;53.596;9.960;2023-05-21T03:47:24;101797.03;;;12.43;nan
14343;BME280;7255;53.596;9.960;2023-05-21T03:49:51;101793.69;;;12.47;nan
14343;BME280;7255;53.596;9.960;2023-05-21T03:52:17;101794.12;;;12.44;nan
14343;BME280;7255;53.596;9.960;2023-05-21T03:54:43;101792.47;;;12.37;nan
14343;BME280;7255;53.596;9.960;2023-05-21T03:57:11;101788.34;;;12.27;nan
14343;BME280;7255;53.596;9.960;2023-05-21T03:59:37;101785.41;;;12.36;nan
14343;BME280;7255;53.596;9.960;2023-05-21T04:02:04;101783.31;;;12.51;nan
14343;BME280;7255;53.596;9.960;2023-05-21T04:04:30;101779.56;;;12.52;nan
14343;BME280;7255;53.596;9.960;2023-05-21T04:06:57;101779.16;;;12.55;nan
14343;BME280;7255;53.596;9.960;2023-05-21T04:09:24;101784.56;;;12.55;nan
14343;BME280;7255;53.596;9.960;2023-05-21T04:11:51;101778.28;;;12.68;nan
14343;BME280;7255;53.596;9.960;2023-05-21T04:14:19;101785.28;;;12.82;nan
14343;BME280;7255;53.596;9.960;2023-05-21T04:16:45;101784.44;;;12.88;nan
14343;BME280;7255;53.596;9.960;2023-05-21T04:19:13;101785.53;;;13.19;nan
14343;BME280;7255;53.596;9.960;2023-05-21T04:21:39;101783.38;;;13.35;nan
14343;BME280;7255;53.596;9.960;2023-05-21T04:24:06;101780.28;;;13.31;nan
14343;BME280;7255;53.596;9.960;2023-05-21T04:26:32;101784.59;;;13.39;nan
14343;BME280;7255;53.596;9.960;2023-05-21T04:28:59;101784.66;;;13.32;nan
14343;BME280;7255;53.596;9.960;2023-05-21T04:31:28;101786.88;;;13.35;nan
14343;BME280;7255;53.596;9.960;2023-05-21T04:33:55;101784.12;;;13.48;nan
14343;BME280;7255;53.596;9.960;2023-05-21T04:36:21;101781.50;;;13.67;nan
14343;BME280;7255;53.596;9.960;2023-05-21T04:38:48;101785.56;;;13.76;nan
14343;BME280;7255;53.596;9.960;2023-05-21T04:41:14;101777.66;;;13.81;nan
14343;BME280;7255;53.596;9.960;2023-05-21T04:43:42;101785.41;;;13.96;nan
14343;BME280;7255;53.596;9.960;2023-05-21T04:46:09;101783.13;;;14.18;nan
14343;BME280;7255;53.596;9.960;2023-05-21T04:48:36;101790.63;;;14.16;nan
14343;BME280;7255;53.596;9.960;2023-05-21T04:51:03;101797.47;;;14.37;nan
14343;BME280;7255;53.596;9.960;2023-05-21T04:53:29;101794.31;;;14.66;nan
14343;BME280;7255;53.596;9.960;2023-05-21T04:55:56;101799.09;;;14.82;nan
14343;BME280;7255;53.596;9.960;2023-05-21T04:58:23;101797.25;;;14.94;nan
14343;BME280;7255;53.596;9.960;2023-05-21T05:00:50;101793.81;;;15.06;nan
14343;BME280;7255;53.596;9.960;2023-05-21T05:03:17;101783.25;;;14.86;nan
14343;BME280;7255;53.596;9.960;2023-05-21T05:05:46;101793.88;;;14.99;nan
14343;BME280;7255;53.596;9.960;2023-05-21T05:08:12;101790.13;;;15.30;nan
14343;BME280;7255;53.596;9.960;2023-05-21T05:10:38;101789.94;;;15.44;nan
14343;BME280;7255;53.596;9.960;2023-05-21T05:13:04;101788.66;;;15.46;nan
14343;BME280;7255;53.596;9.960;2023-05-21T05:15:31;101790.81;;;15.26;nan
14343;BME280;7255;53.596;9.960;2023-05-21T05:17:57;101785.91;;;15.34;nan
14343;BME280;7255;53.596;9.960;2023-05-21T05:20:24;101796.56;;;15.71;nan
14343;BME280;7255;53.596;9.960;2023-05-21T05:22:51;101789.53;;;15.70;nan
14343;BME280;7255;53.596;9.960;2023-05-21T05:25:18;101794.59;;;15.67;nan
14343;BME280;7255;53.596;9.960;2023-05-21T05:27:45;101785.56;;;15.85;nan
14343;BME280;7255;53.596;9.960;2023-05-21T05:30:11;101789.94;;;15.97;nan
14343;BME280;7255;53.596;9.960;2023-05-21T05:32:37;101789.81;;;16.04;nan
14343;BME280;7255;53.596;9.960;2023-05-21T05:35:05;101794.53;;;16.21;nan
14343;BME280;7255;53.596;9.960;2023-05-21T05:37:31;101794.75;;;16.31;nan
14343;BME280;7255;53.596;9.960;2023-05-21T05:39:59;101799.22;;;16.37;nan
14343;BME280;7255;53.596;9.960;2023-05-21T05:42:25;101787.22;;;16.09;nan
14343;BME280;7255;53.596;9.960;2023-05-21T05:44:52;101787.69;;;16.30;nan
14343;BME280;7255;53.596;9.960;2023-05-21T05:47:18;101788.53;;;16.07;nan
14343;BME280;7255;53.596;9.960;2023-05-21T05:49:45;101794.88;;;16.24;nan
14343;BME280;7255;53.596;9.960;2023-05-21T05:52:12;101790.25;;;16.48;nan
14343;BME280;7255;53.596;9.960;2023-05-21T05:54:38;101800.50;;;16.46;nan
14343;BME280;7255;53.596;9.960;2023-05-21T05:57:06;101794.66;;;16.38;nan
14343;BME280;7255;53.596;9.960;2023-05-21T05:59:32;101796.31;;;16.79;nan
14343;BME280;7255;53.596;9.960;2023-05-21T06:01:59;101797.75;;;16.70;nan
14343;BME280;7255;53.596;9.960;2023-05-21T06:04:25;101791.56;;;16.46;nan
14343;BME280;7255;53.596;9.960;2023-05-21T06:06:54;101801.22;;;16.65;nan
14343;BME280;7255;53.596;9.960;2023-05-21T06:09:21;101792.34;;;16.70;nan
14343;BME280;7255;53.596;9.960;2023-05-21T06:11:48;101781.25;;;16.83;nan
14343;BME280;7255;53.596;9.960;2023-05-21T06:14:15;101783.44;;;16.98;nan
14343;BME280;7255;53.596;9.960;2023-05-21T06:16:42;101790.66;;;16.92;nan
14343;BME280;7255;53.596;9.960;2023-05-21T06:19:08;101793.41;;;17.38;nan
14343;BME280;7255;53.596;9.960;2023-05-21T06:21:34;101790.28;;;17.63;nan
14343;BME280;7255;53.596;9.960;2023-05-21T06:24:01;101794.03;;;17.28;nan
14343;BME280;7255;53.596;9.960;2023-05-21T06:26:27;101796.25;;;17.77;nan
14343;BME280;7255;53.596;9.960;2023-05-21T06:28:53;101801.22;;;17.97;nan
14343;BME280;7255;53.596;9.960;2023-05-21T06:31:21;101799.16;;;18.43;nan
14343;BME280;7255;53.596;9.960;2023-05-21T06:33:48;101796.75;;;17.91;nan
14343;BME280;7255;53.596;9.960;2023-05-21T06:36:15;101795.91;;;18.24;nan
14343;BME280;7255;53.596;9.960;2023-05-21T06:38:41;101801.34;;;18.07;nan
14343;BME280;7255;53.596;9.960;2023-05-21T06:41:08;101792.25;;;18.36;nan
14343;BME280;7255;53.596;9.960;2023-05-21T06:43:35;101795.63;;;18.65;nan
14343;BME280;7255;53.596;9.960;2023-05-21T06:46:01;101798.38;;;18.87;nan
14343;BME280;7255;53.596;9.960;2023-05-21T06:48:29;101799.81;;;18.95;nan
14343;BME280;7255;53.596;9.960;2023-05-21T06:50:55;101796.94;;;19.07;nan
14343;BME280;7255;53.596;9.960;2023-05-21T06:53:21;101800.63;;;18.95;nan
14343;BME280;7255;53.596;9.960;2023-05-21T06:55:47;101795.22;;;19.22;nan
14343;BME280;7255;53.596;9.960;2023-05-21T06:58:17;101796.75;;;19.13;nan
14343;BME280;7255;53.596;9.960;2023-05-21T07:00:43;101795.22;;;19.22;nan
14343;BME280;7255;53.596;9.960;2023-05-21T07:03:10;101793.44;;;19.66;nan
14343;BME280;7255;53.596;9.960;2023-05-21T07:05:37;101789.34;;;19.36;nan
14343;BME280;7255;53.596;9.960;2023-05-21T07:08:04;101793.44;;;19.66;nan
14343;BME280;7255;53.596;9.960;2023-05-21T07:10:30;101788.38;;;20.17;nan
14343;BME280;7255;53.596;9.960;2023-05-21T07:12:57;101793.25;;;20.10;nan
14343;BME280;7255;53.596;9.960;2023-05-21T07:15:23;101789.09;;;19.70;nan
14343;BME280;7255;53.596;9.960;2023-05-21T07:17:49;101794.12;;;19.83;nan
14343;BME280;7255;53.596;9.960;2023-05-21T07:20:16;101796.81;;;19.73;nan
14343;BME280;7255;53.596;9.960;2023-05-21T07:22:43;101793.13;;;19.62;nan
14343;BME280;7255;53.596;9.960;2023-05-21T07:25:10;101791.56;;;19.39;nan
14343;BME280;7255;53.596;9.960;2023-05-21T07:27:36;101795.06;;;19.67;nan
14343;BME280;7255;53.596;9.960;2023-05-21T07:30:03;101791.16;;;19.85;nan
14343;BME280;7255;53.596;9.960;2023-05-21T07:32:29;101781.84;;;20.23;nan
14343;BME280;7255;53.596;9.960;2023-05-21T07:34:58;101787.81;;;20.68;nan
14343;BME280;7255;53.596;9.960;2023-05-21T07:37:26;101792.53;;;20.88;nan
14343;BME280;7255;53.596;9.960;2023-05-21T07:39:55;101787.28;;;20.61;nan
14343;BME280;7255;53.596;9.960;2023-05-21T07:42:22;101782.75;;;20.92;nan
14343;BME280;7255;53.596;9.960;2023-05-21T07:44:48;101776.72;;;20.95;nan
14343;BME280;7255;53.596;9.960;2023-05-21T07:47:14;101778.22;;;21.49;nan
14343;BME280;7255;53.596;9.960;2023-05-21T07:49:41;101778.44;;;21.42;nan
14343;BME280;7255;53.596;9.960;2023-05-21T07:52:07;101778.44;;;21.27;nan
14343;BME280;7255;53.596;9.960;2023-05-21T07:54:33;101777.66;;;21.83;nan
14343;BME280;7255;53.596;9.960;2023-05-21T07:57:01;101774.59;;;22.10;nan
14343;BME280;7255;53.596;9.960;2023-05-21T07:59:27;101771.81;;;22.25;nan
14343;BME280;7255;53.596;9.960;2023-05-21T08:01:54;101777.00;;;22.42;nan
14343;BME280;7255;53.596;9.960;2023-05-21T08:04:21;101771.94;;;22.75;nan
14343;BME280;7255;53.596;9.960;2023-05-21T08:06:47;101783.56;;;22.36;nan
14343;BME280;7255;53.596;9.960;2023-05-21T08:09:13;101775.75;;;21.73;nan
14343;BME280;7255;53.596;9.960;2023-05-21T08:11:40;101776.25;;;22.01;nan
14343;BME280;7255;53.596;9.960;2023-05-21T08:14:07;101775.13;;;22.07;nan
14343;BME280;7255;53.596;9.960;2023-05-21T08:16:34;101771.59;;;22.06;nan
14343;BME280;7255;53.596;9.960;2023-05-21T08:19:00;101768.81;;;22.37;nan
14343;BME280;7255;53.596;9.960;2023-05-21T08:21:27;101763.50;;;22.61;nan
14343;BME280;7255;53.596;9.960;2023-05-21T08:23:53;101762.19;;;22.98;nan
14343;BME280;7255;53.596;9.960;2023-05-21T08:26:19;101759.25;;;22.90;nan
14343;BME280;7255;53.596;9.960;2023-05-21T08:28:46;101763.59;;;22.41;nan
14343;BME280;7255;53.596;9.960;2023-05-21T08:31:13;101764.94;;;22.38;nan
14343;BME280;7255;53.596;9.960;2023-05-21T08:33:48;101761.91;;;22.50;nan
14343;BME280;7255;53.596;9.960;2023-05-21T08:36:15;101760.56;;;22.97;nan
14343;BME280;7255;53.596;9.960;2023-05-21T08:38:41;101762.56;;;22.81;nan
14343;BME280;7255;53.596;9.960;2023-05-21T08:41:07;101759.06;;;23.20;nan
14343;BME280;7255;53.596;9.960;2023-05-21T08:43:36;101762.00;;;23.34;nan
14343;BME280;7255;53.596;9.960;2023-05-21T08:46:03;101766.59;;;23.04;nan
14343;BME280;7255;53.596;9.960;2023-05-21T08:48:31;101763.97;;;22.79;nan
14343;BME280;7255;53.596;9.960;2023-05-21T08:50:58;101771.44;;;23.18;nan
14343;BME280;7255;53.596;9.960;2023-05-21T08:53:25;101755.00;;;23.13;nan
14343;BME280;7255;53.596;9.960;2023-05-21T08:55:52;101750.97;;;22.95;nan
14343;BME280;7255;53.596;9.960;2023-05-21T08:58:20;101752.47;;;23.27;nan
14343;BME280;7255;53.596;9.960;2023-05-21T09:00:46;101749.75;;;23.21;nan
14343;BME280;7255;53.596;9.960;2023-05-21T09:03:13;101747.22;;;23.30;nan
14343;BME280;7255;53.596;9.960;2023-05-21T09:05:42;101757.53;;;23.43;nan
14343;BME280;7255;53.596;9.960;2023-05-21T09:08:13;101762.84;;;23.64;nan
14343;BME280;7255;53.596;9.960;2023-05-21T09:10:47;101766.59;;;23.39;nan
14343;BME280;7255;53.596;9.960;2023-05-21T09:13:15;101751.00;;;23.39;nan
14343;BME280;7255;53.596;9.960;2023-05-21T09:15:42;101749.41;;;23.62;nan
14343;BME280;7255;53.596;9.960;2023-05-21T09:18:09;101754.31;;;23.66;nan
14343;BME280;7255;53.596;9.960;2023-05-21T09:20:35;101753.09;;;23.48;nan
14343;BME280;7255;53.596;9.960;2023-05-21T09:23:04;101759.19;;;23.44;nan
14343;BME280;7255;53.596;9.960;2023-05-21T09:25:31;101760.62;;;23.66;nan
14343;BME280;7255;53.596;9.960;2023-05-21T09:27:58;101758.13;;;23.99;nan
14343;BME280;7255;53.596;9.960;2023-05-21T09:30:24;101757.31;;;24.23;nan
14343;BME280;7255;53.596;9.960;2023-05-21T09:32:52;101751.13;;;24.36;nan
14343;BME280;7255;53.596;9.960;2023-05-21T09:35:18;101751.66;;;24.14;nan
14343;BME280;7255;53.596;9.960;2023-05-21T09:37:47;101758.13;;;23.99;nan
14343;BME280;7255;53.596;9.960;2023-05-21T09:40:16;101762.81;;;24.23;nan
14343;BME280;7255;53.596;9.960;2023-05-21T09:42:45;101758.25;;;24.61;nan
14343;BME280;7255;53.596;9.960;2023-05-21T09:45:16;101755.56;;;24.56;nan
14343;BME280;7255;53.596;9.960;2023-05-21T09:47:44;101753.00;;;24.40;nan
14343;BME280;7255;53.596;9.960;2023-05-21T09:50:11;101760.34;;;24.45;nan
14343;BME280;7255;53.596;9.960;2023-05-21T09:52:38;101756.19;;;24.53;nan
14343;BME280;7255;53.596;9.960;2023-05-21T09:55:05;101760.25;;;24.31;nan
14343;BME280;7255;53.596;9.960;2023-05-21T09:57:39;101751.00;;;24.46;nan
14343;BME280;7255;53.596;9.960;2023-05-21T10:00:06;101751.44;;;24.77;nan
14343;BME280;7255;53.596;9.960;2023-05-21T10:02:36;101753.81;;;24.41;nan
14343;BME280;7255;53.596;9.960;2023-05-21T10:05:04;101757.62;;;24.88;nan
14343;BME280;7255;53.596;9.960;2023-05-21T10:07:34;101749.63;;;25.44;nan
14343;BME280;7255;53.596;9.960;2023-05-21T10:10:03;101759.09;;;25.38;nan
14343;BME280;7255;53.596;9.960;2023-05-21T10:12:33;101764.47;;;25.62;nan
14343;BME280;7255;53.596;9.960;2023-05-21T10:15:02;101757.94;;;25.06;nan
14343;BME280;7255;53.596;9.960;2023-05-21T10:17:29;101749.13;;;25.42;nan
14343;BME280;7255;53.596;9.960;2023-05-21T10:19:56;101741.94;;;25.92;nan
14343;BME280;7255;53.596;9.960;2023-05-21T10:22:24;101741.91;;;26.06;nan
14343;BME280;7255;53.596;9.960;2023-05-21T10:24:51;101749.66;;;26.32;nan
14343;BME280;7255;53.596;9.960;2023-05-21T10:27:18;101729.69;;;26.40;nan
14343;BME280;7255;53.596;9.960;2023-05-21T10:29:47;101738.03;;;26.49;nan
14343;BME280;7255;53.596;9.960;2023-05-21T10:32:15;101731.69;;;26.76;nan
14343;BME280;7255;53.596;9.960;2023-05-21T10:34:42;101736.62;;;26.38;nan
14343;BME280;7255;53.596;9.960;2023-05-21T10:37:11;101734.19;;;26.36;nan
14343;BME280;7255;53.596;9.960;2023-05-21T10:39:38;101738.47;;;26.28;nan
14343;BME280;7255;53.596;9.960;2023-05-21T10:42:11;101726.81;;;26.31;nan
14343;BME280;7255;53.596;9.960;2023-05-21T10:44:51;101720.09;;;26.38;nan
14343;BME280;7255;53.596;9.960;2023-05-21T10:47:42;101720.56;;;26.54;nan
14343;BME280;7255;53.596;9.960;2023-05-21T10:50:28;101712.94;;;26.23;nan
14343;BME280;7255;53.596;9.960;2023-05-21T10:53:06;101709.66;;;26.62;nan
14343;BME280;7255;53.596;9.960;2023-05-21T10:55:45;101701.72;;;26.47;nan
14343;BME280;7255;53.596;9.960;2023-05-21T11:01:27;101704.00;;;26.03;nan
14343;BME280;7255;53.596;9.960;2023-05-21T11:03:53;101708.34;;;26.32;nan
14343;BME280;7255;53.596;9.960;2023-05-21T11:06:22;101708.66;;;26.44;nan
14343;BME280;7255;53.596;9.960;2023-05-21T11:08:49;101702.28;;;26.58;nan
14343;BME280;7255;53.596;9.960;2023-05-21T11:11:38;101695.72;;;26.81;nan
14343;BME280;7255;53.596;9.960;2023-05-21T11:14:25;101691.16;;;26.12;nan
14343;BME280;7255;53.596;9.960;2023-05-21T11:16:53;101704.78;;;26.45;nan
14343;BME280;7255;53.596;9.960;2023-05-21T11:19:19;101694.69;;;25.85;nan
14343;BME280;7255;53.596;9.960;2023-05-21T11:21:49;101689.19;;;25.39;nan
14343;BME280;7255;53.596;9.960;2023-05-21T11:24:17;101696.25;;;26.05;nan
14343;BME280;7255;53.596;9.960;2023-05-21T11:27:02;101690.91;;;26.37;nan
14343;BME280;7255;53.596;9.960;2023-05-21T11:29:41;101687.78;;;26.80;nan
14343;BME280;7255;53.596;9.960;2023-05-21T11:32:11;101690.34;;;26.99;nan
14343;BME280;7255;53.596;9.960;2023-05-21T11:34:40;101679.22;;;27.13;nan
14343;BME280;7255;53.596;9.960;2023-05-21T11:37:32;101687.31;;;26.86;nan
14343;BME280;7255;53.596;9.960;2023-05-21T11:40:19;101694.37;;;26.93;nan
14343;BME280;7255;53.596;9.960;2023-05-21T11:42:50;101685.94;;;26.75;nan
14343;BME280;7255;53.596;9.960;2023-05-21T11:45:18;101682.94;;;26.35;nan
14343;BME280;7255;53.596;9.960;2023-05-21T11:47:46;101679.47;;;26.43;nan
14343;BME280;7255;53.596;9.960;2023-05-21T11:50:14;101678.16;;;26.77;nan
14343;BME280;7255;53.596;9.960;2023-05-21T11:52:41;101672.12;;;26.39;nan
14343;BME280;7255;53.596;9.960;2023-05-21T11:55:08;101681.69;;;26.69;nan
14343;BME280;7255;53.596;9.960;2023-05-21T11:57:36;101676.63;;;27.07;nan
14343;BME280;7255;53.596;9.960;2023-05-21T12:00:04;101678.94;;;27.37;nan
14343;BME280;7255;53.596;9.960;2023-05-21T12:02:37;101671.97;;;27.39;nan
14343;BME280;7255;53.596;9.960;2023-05-21T12:05:06;101686.38;;;27.59;nan
14343;BME280;7255;53.596;9.960;2023-05-21T12:07:33;101680.00;;;27.58;nan
14343;BME280;7255;53.596;9.960;2023-05-21T12:09:59;101674.69;;;27.31;nan
14343;BME280;7255;53.596;9.960;2023-05-21T12:12:26;101671.69;;;27.81;nan
14343;BME280;7255;53.596;9.960;2023-05-21T12:14:54;101665.31;;;27.80;nan
14343;BME280;7255;53.596;9.960;2023-05-21T12:17:21;101664.91;;;27.56;nan
14343;BME280;7255;53.596;9.960;2023-05-21T12:19:50;101660.81;;;27.22;nan
14343;BME280;7255;53.596;9.960;2023-05-21T12:22:18;101661.25;;;27.15;nan
14343;BME280;7255;53.596;9.960;2023-05-21T12:24:45;101657.13;;;26.81;nan
14343;BME280;7255;53.596;9.960;2023-05-21T12:27:12;101650.09;;;26.98;nan
14343;BME280;7255;53.596;9.960;2023-05-21T12:29:42;101660.13;;;27.39;nan
14343;BME280;7255;53.596;9.960;2023-05-21T12:32:10;101656.03;;;27.36;nan
14343;BME280;7255;53.596;9.960;2023-05-21T12:34:39;101651.72;;;27.44;nan
14343;BME280;7255;53.596;9.960;2023-05-21T12:37:07;101656.56;;;27.16;nan
14343;BME280;7255;53.596;9.960;2023-05-21T12:39:38;101653.53;;;27.03;nan
14343;BME280;7255;53.596;9.960;2023-05-21T12:42:04;101654.00;;;26.97;nan
14343;BME280;7255;53.596;9.960;2023-05-21T12:44:31;101653.75;;;26.84;nan
14343;BME280;7255;53.596;9.960;2023-05-21T12:46:57;101657.25;;;26.99;nan
14343;BME280;7255;53.596;9.960;2023-05-21T12:49:32;101649.53;;;27.32;nan
14343;BME280;7255;53.596;9.960;2023-05-21T12:52:01;101644.78;;;27.64;nan
14343;BME280;7255;53.596;9.960;2023-05-21T12:54:29;101646.53;;;27.91;nan
14343;BME280;7255;53.596;9.960;2023-05-21T12:56:57;101638.16;;;28.14;nan
14343;BME280;7255;53.596;9.960;2023-05-21T12:59:23;101642.59;;;28.32;nan
14343;BME280;7255;53.596;9.960;2023-05-21T13:01:50;101637.37;;;28.39;nan
14343;BME280;7255;53.596;9.960;2023-05-21T13:04:18;101645.38;;;28.58;nan
14343;BME280;7255;53.596;9.960;2023-05-21T13:06:44;101630.25;;;28.73;nan
14343;BME280;7255;53.596;9.960;2023-05-21T13:09:10;101632.53;;;28.89;nan
14343;BME280;7255;53.596;9.960;2023-05-21T13:11:36;101631.81;;;29.09;nan
14343;BME280;7255;53.596;9.960;2023-05-21T13:14:04;101641.25;;;29.08;nan
14343;BME280;7255;53.596;9.960;2023-05-21T13:16:30;101627.97;;;28.75;nan
14343;BME280;7255;53.596;9.960;2023-05-21T13:18:57;101626.63;;;28.29;nan
14343;BME280;7255;53.596;9.960;2023-05-21T13:21:23;101632.28;;;27.98;nan
14343;BME280;7255;53.596;9.960;2023-05-21T13:23:49;101623.25;;;27.75;nan
14343;BME280;7255;53.596;9.960;2023-05-21T13:26:16;101630.59;;;27.79;nan
14343;BME280;7255;53.596;9.960;2023-05-21T13:28:42;101626.28;;;27.56;nan